メインページ
METAR-TAF:

METAR-TAF

空港 :

アブダビ国際空港

アブダビ, アラブ首長国連邦

緯度: 24-26N, 経度: 054-39E, 海抜: 16m

現時点の気象観測

当レポートは45分前の23:00(UTC)に作成
変向風 5kt
気温 22°C
湿度 65%
気圧 1020 hPa
視程10km以上
1,500メートル以下は雲なし、積乱雲なし

METAR: OMAA 152300Z VRB05KT CAVOK 22/15 Q1020 BECMG 04005KT

時間: 03:45 (23:45 UTC)

予報

当レポートは45分前の23:00(UTC)に作成
予報は16日の 00時(UTC)から 17日の 06時(UTC)まで有効
北/北東の風 5kt
視程: 8000m
確率 30%
16日の 02時(UTC)から 16日の 04時(UTC)まで
視程: 4000m
煙霧
16日の 02時(UTC)から 16日の 04時(UTC)まで徐々に
東/南東の風 6kt
16日の 10時(UTC)から 16日の 12時(UTC)まで徐々に
北/北西の風 10kt
16日の 18時(UTC)から 16日の 20時(UTC)まで徐々に
北東の風 6kt
17日の 01時(UTC)から 17日の 03時(UTC)まで徐々に
東/南東の風 6kt

TAF: OMAA 152300Z 1600/1706 03005KT 8000 NSC PROB30 1602/1604 4000 HZ BECMG 1602/1604 11006KT BECMG 1610/1612 34010KT BECMG 1618/1620 04006KT BECMG 1701/1703 11006KT

4,000以上の空港の気象観測と天気予報(METAR報とTAF報)

利用可能な観測所は地図上に黄色い丸と赤い丸で示す。

丸の上にカーソルを重ねると観測所名を参照できる。

次にクリックすると気象観測と天気予報を参照できる。

マップの切り替え:黒色「×」印の緑ボタンをクリックして拡大、「-」印の緑ボタンをクリックして縮小、緑色の三角印をクリックして隣りの地図に切り替え


METAR-TAF: